Aeroporto :
LOGIN :

Iscrizione | Disclaimer

   EN    FR    IT 

 










Sommario :    VFR   VFR Marginale   IFR   IFR Intensivo   IFR Molto Intensivo
Visibilità : 
Base nubi : 
>= 8 km
>= 3000ft
5 / 8 km
1000 / 3000 ft
1500m / 5 km
500 / 1000 ft
800 / 1500m
200 / 500 ft
< 800m
< 200 ft
Simboli :   Temporali  Nebbia  Neve Forte  Precipitazioni Forti  Vento > 20 kt
SIGMETs :   Varie  Temporali  Ghiacco  Turbolenza  Onda orograficha  Ceneri Vulcaniche






- Altitudine del aeroporto : 1470 ft
- Codice IATA : KLU


LOWK - Klagenfurt

ULTIMO METAR :
  • 190650Z AUTO 30004KT 250V340 9999 NCD 23/15 Q1017 NOSIG

METARs OBSOLETI :
  • 190620Z AUTO VRB01KT 9999 NCD 23/15 Q1017 NOSIG
  • 190550Z AUTO VRB02KT 9999 NCD 21/14 Q1017 NOSIG
  • 190520Z AUTO VRB01KT 9999 NCD 20/14 Q1017 NOSIG
  • 190450Z AUTO VRB02KT 9999 NCD 18/14 Q1017 NOSIG
  • 190420Z AUTO VRB02KT 9999 NCD 17/14 Q1016 NOSIG
  • 190350Z AUTO VRB01KT 9999 NCD 17/14 Q1016 NOSIG
  • 190320Z AUTO 08003KT 010V120 9999 NCD 17/14 Q1016 NOSIG
  • 190250Z AUTO VRB02KT 9999 NCD 17/14 Q1016
  • 190220Z AUTO VRB02KT 9999 NCD 19/14 Q1016

TAF TAF LOWK
Valido dal 19 a 06 ore il 20 a 06 ore UTC


190515Z 1906/2006 23005KT 9999 FEW080 TX32/1914Z TN18/2004Z
TEMPO 1912/1918 23015G25KT



MetMap, La meteo Aeronautica in un colpo d'occhio ! - Copyright ORBIFLY Dicembre 2007 - Disclaimer

ORBIFLY MET'MAP TEAM :

Programmazione e sviluppo : Alexandra Zaïnal
Concezione : Baudouin d'Aumeries
Supporto tecnico e logistico : Manuel Goepfert
Aiuto : Marc-Olivier Méhu
Aiuto per la traduzione : Arnaldo La Scala




FONTI E CREDITI :

   NOAA